LFRM/LME METAR and TAF weather

Enter ICAO airport designator
Station Type Date Time Source
LFRM METAR 2019/10/18 11:30 UTC NOAA

LFRM 181130Z AUTO 22012G22KT 190V270 9999 BKN039 BKN050 16/08 Q1010 TEMPO 4000 SHRA BKN026TCU


Station Type Date Time Source
LFRM Decoded METAR 2019/10/18 11:30 UTC NOAA

Le Mans, France (LFRM) 47-56N 000-12E 52M
Oct 18, 2019 - 07:30 AM EDT / 2019.10.18 1130 UTC
Wind: from the SW (220 degrees) at 14 MPH (12 KT) gusting to 25 MPH (22 KT) (direction variable):0
Visibility: greater than 7 mile(s):0
Sky conditions: mostly cloudy
Weather: Towering cumulus clouds observed
Temperature: 60 F (16 C)
Dew Point: 46 F (8 C)
Relative Humidity: 58%
Pressure (altimeter): 29.83 in. Hg (1010 hPa)
ob: LFRM 181130Z AUTO 22012G22KT 190V270 9999 BKN039 BKN050 16/08 Q1010 TEMPO 4000 SHRA BKN026TCU
cycle: 11

Station Type Date Time Source
LFRM TAF 2019/10/18 12:25 UTC NOAA

TAF LFRM 181100Z 1812/1912 23010KT 9999 SCT030
TEMPO 1812/1819 24015G25KT 4000 SHRA BKN026TCU
BECMG 1820/1822 -RA BKN013
TEMPO 1822/1905 3000 RA BKN006
BECMG 1905/1907 BKN020 PROB30
TEMPO 1907/1912 SHRA SCT030TCU

Example: see airport list